createdAt,value
2019-02-09T00:00:58.376Z,19.61
2019-02-09T00:03:25.634Z,19.62
2019-02-09T00:05:52.789Z,19.62
2019-02-09T00:08:19.989Z,19.62
2019-02-09T00:10:47.191Z,19.62
2019-02-09T00:13:14.487Z,19.60
2019-02-09T00:15:41.700Z,19.62
2019-02-09T00:18:08.890Z,19.60
2019-02-09T00:20:36.121Z,19.57
2019-02-09T00:23:03.841Z,19.58
2019-02-09T00:25:31.097Z,19.57
2019-02-09T00:27:58.287Z,19.57
2019-02-09T00:30:25.496Z,19.58
2019-02-09T00:32:52.666Z,19.57
2019-02-09T00:35:19.927Z,19.57
2019-02-09T00:37:47.160Z,19.58
2019-02-09T00:40:14.388Z,19.54
2019-02-09T00:42:41.602Z,19.54
2019-02-09T00:45:09.028Z,19.54
2019-02-09T00:47:36.363Z,19.53
2019-02-09T00:50:04.127Z,19.52
2019-02-09T00:52:31.317Z,19.52
2019-02-09T00:54:58.595Z,19.52
2019-02-09T00:57:25.791Z,19.53
2019-02-09T00:59:54.297Z,19.52
2019-02-09T01:02:21.858Z,19.51
2019-02-09T01:04:49.019Z,19.52
2019-02-09T01:07:16.229Z,19.52
2019-02-09T01:09:43.424Z,19.53
2019-02-09T01:12:10.619Z,19.51
2019-02-09T01:14:37.939Z,19.52
2019-02-09T01:17:05.143Z,19.51
2019-02-09T01:19:32.358Z,19.48
2019-02-09T01:21:59.518Z,19.48
2019-02-09T01:24:26.710Z,19.50
2019-02-09T01:26:53.947Z,19.49
2019-02-09T01:29:21.166Z,19.51
2019-02-09T01:31:48.378Z,19.49
2019-02-09T01:34:15.553Z,19.51
2019-02-09T01:36:42.835Z,19.51
2019-02-09T01:39:10.042Z,19.49
2019-02-09T01:41:37.241Z,19.49
2019-02-09T01:44:04.482Z,19.46
2019-02-09T01:46:31.658Z,19.47
2019-02-09T01:48:58.873Z,19.47
2019-02-09T01:51:26.046Z,19.47
2019-02-09T01:53:53.775Z,19.47
2019-02-09T01:56:20.952Z,19.46
2019-02-09T01:58:48.182Z,19.48
2019-02-09T02:01:15.398Z,19.47
2019-02-09T02:03:42.622Z,19.48
2019-02-09T02:06:09.810Z,19.46
2019-02-09T02:08:36.962Z,19.46
2019-02-09T02:11:04.379Z,19.44
2019-02-09T02:13:31.626Z,19.43
2019-02-09T02:15:58.919Z,19.44
2019-02-09T02:18:26.141Z,19.43
2019-02-09T02:20:53.301Z,19.45
2019-02-09T02:23:20.620Z,19.47
2019-02-09T02:25:47.807Z,19.44
2019-02-09T02:28:14.984Z,19.43
2019-02-09T02:30:42.260Z,19.43
2019-02-09T02:33:09.487Z,19.46
2019-02-09T02:35:36.718Z,19.44
2019-02-09T02:38:03.976Z,19.44
2019-02-09T02:40:31.202Z,19.43
2019-02-09T02:42:58.392Z,19.44
2019-02-09T02:45:25.592Z,19.44
2019-02-09T02:47:52.866Z,19.42
2019-02-09T02:50:20.112Z,19.40
2019-02-09T02:52:47.376Z,19.40
2019-02-09T02:55:24.880Z,19.42
2019-02-09T02:57:52.550Z,19.40
2019-02-09T03:00:31.825Z,19.40
2019-02-09T03:02:53.690Z,19.41
2019-02-09T03:05:21.605Z,19.38
2019-02-09T03:07:48.835Z,19.40
2019-02-09T03:10:16.116Z,19.36
2019-02-09T03:12:43.366Z,19.38
2019-02-09T03:15:16.363Z,19.40
2019-02-09T03:17:43.564Z,19.36
2019-02-09T03:20:12.627Z,19.38
2019-02-09T03:22:39.814Z,19.38
2019-02-09T03:25:09.190Z,19.36
2019-02-09T03:27:36.365Z,19.37
2019-02-09T03:30:05.105Z,19.36
2019-02-09T03:32:32.355Z,19.33
2019-02-09T03:34:59.591Z,19.35
2019-02-09T03:37:26.835Z,19.38
2019-02-09T03:39:54.014Z,19.37
2019-02-09T03:42:21.269Z,19.35
2019-02-09T03:44:48.407Z,19.32
2019-02-09T03:47:15.618Z,19.34
2019-02-09T03:49:42.877Z,19.35
2019-02-09T03:52:10.080Z,19.35
2019-02-09T03:54:37.330Z,19.35
2019-02-09T03:57:04.499Z,19.35
2019-02-09T03:59:31.811Z,19.34
2019-02-09T04:01:58.985Z,19.35
2019-02-09T04:04:26.142Z,19.32
2019-02-09T04:06:53.368Z,19.33
2019-02-09T04:09:20.522Z,19.31
2019-02-09T04:11:47.762Z,19.31
2019-02-09T04:14:14.922Z,19.30
2019-02-09T04:16:42.178Z,19.30
2019-02-09T04:19:09.395Z,19.27
2019-02-09T04:21:36.721Z,19.28
2019-02-09T04:24:03.921Z,19.29
2019-02-09T04:26:31.121Z,19.31
2019-02-09T04:28:58.352Z,19.34
2019-02-09T04:31:25.545Z,19.36
2019-02-09T04:33:52.735Z,19.39
2019-02-09T04:36:19.890Z,19.42
2019-02-09T04:38:47.175Z,19.48
2019-02-09T04:41:14.378Z,19.50
2019-02-09T04:43:41.617Z,19.52
2019-02-09T04:46:08.862Z,19.57
2019-02-09T04:48:36.055Z,19.61
2019-02-09T04:51:03.309Z,19.64
2019-02-09T04:53:30.471Z,19.66
2019-02-09T04:55:57.712Z,19.69
2019-02-09T04:58:24.914Z,19.70
2019-02-09T05:00:52.099Z,19.69
2019-02-09T05:03:19.336Z,19.67
2019-02-09T05:05:46.549Z,19.64
2019-02-09T05:08:13.758Z,19.66
2019-02-09T05:10:40.981Z,19.67
2019-02-09T05:13:08.161Z,19.73
2019-02-09T05:15:35.370Z,19.77
2019-02-09T05:18:02.548Z,19.79
2019-02-09T05:20:29.700Z,19.78
2019-02-09T05:22:56.939Z,19.76
2019-02-09T05:25:24.104Z,19.76
2019-02-09T05:27:51.425Z,19.77
2019-02-09T05:30:20.633Z,19.78
2019-02-09T05:32:47.815Z,19.81
2019-02-09T05:35:15.009Z,19.82
2019-02-09T05:37:42.286Z,19.83
2019-02-09T05:40:11.079Z,19.84
2019-02-09T05:42:38.306Z,19.85
2019-02-09T05:45:07.183Z,19.82
2019-02-09T05:47:34.406Z,19.79
2019-02-09T05:50:01.602Z,19.82
2019-02-09T05:52:28.793Z,19.85
2019-02-09T05:54:56.040Z,19.82
2019-02-09T05:57:23.314Z,19.80
2019-02-09T05:59:50.493Z,19.79
2019-02-09T06:02:17.663Z,19.79
2019-02-09T06:04:44.892Z,19.80
2019-02-09T06:07:12.084Z,19.77
2019-02-09T06:09:39.244Z,19.77
2019-02-09T06:12:06.430Z,19.75
2019-02-09T06:14:33.634Z,19.80
2019-02-09T06:17:00.885Z,19.80
2019-02-09T06:19:28.069Z,19.79
2019-02-09T06:21:55.282Z,19.79
2019-02-09T06:24:22.427Z,19.82
2019-02-09T06:26:49.669Z,19.82
2019-02-09T06:29:16.974Z,19.76
2019-02-09T06:31:44.202Z,19.76
2019-02-09T06:34:11.367Z,19.77
2019-02-09T06:36:38.594Z,19.82
2019-02-09T06:39:07.455Z,19.83
2019-02-09T06:41:34.615Z,19.82
2019-02-09T06:44:01.771Z,19.83
2019-02-09T06:46:29.003Z,19.79
2019-02-09T06:48:56.233Z,19.81
2019-02-09T06:51:23.455Z,19.81
2019-02-09T06:53:50.645Z,19.83
2019-02-09T06:56:17.865Z,19.85
2019-02-09T06:58:45.105Z,19.87
2019-02-09T07:01:12.361Z,19.89
2019-02-09T07:03:39.635Z,19.88
2019-02-09T07:06:06.829Z,19.90
2019-02-09T07:08:34.024Z,19.91
2019-02-09T07:11:01.225Z,19.89
2019-02-09T07:13:28.473Z,19.88
2019-02-09T07:15:55.677Z,19.90
2019-02-09T07:18:22.843Z,19.89
2019-02-09T07:20:50.054Z,19.92
2019-02-09T07:23:17.241Z,19.91
2019-02-09T07:25:44.439Z,19.91
2019-02-09T07:28:11.605Z,19.92
2019-02-09T07:30:38.856Z,19.93
2019-02-09T07:33:06.164Z,19.93
2019-02-09T07:35:33.354Z,19.96
2019-02-09T07:38:00.591Z,20.00
2019-02-09T07:40:27.807Z,20.00
2019-02-09T07:42:54.986Z,19.98
2019-02-09T07:45:24.046Z,19.99
2019-02-09T07:47:51.262Z,20.00
2019-02-09T07:50:19.124Z,19.99
2019-02-09T07:52:46.397Z,20.00
2019-02-09T07:55:13.786Z,20.03
2019-02-09T07:57:40.988Z,20.02
2019-02-09T08:00:12.034Z,20.01
2019-02-09T08:02:39.278Z,20.03
2019-02-09T08:05:06.514Z,20.06
2019-02-09T08:07:33.701Z,20.07
2019-02-09T08:10:00.937Z,20.06
2019-02-09T08:12:28.259Z,20.06
2019-02-09T08:14:55.477Z,20.08
2019-02-09T08:17:22.644Z,20.09
2019-02-09T08:19:49.848Z,20.10
2019-02-09T08:22:17.061Z,20.13
2019-02-09T08:24:44.236Z,20.13
2019-02-09T08:27:11.488Z,20.13
2019-02-09T08:29:38.666Z,20.14
2019-02-09T08:32:12.448Z,20.17
2019-02-09T08:34:34.994Z,20.20
2019-02-09T08:37:02.295Z,20.18
2019-02-09T08:39:29.482Z,20.18
2019-02-09T08:41:56.699Z,20.20
2019-02-09T08:44:23.913Z,20.25
2019-02-09T08:46:51.119Z,20.26
2019-02-09T08:49:18.365Z,20.26
2019-02-09T08:51:45.606Z,20.28
2019-02-09T08:54:12.794Z,20.30
2019-02-09T08:56:39.985Z,20.33
2019-02-09T08:59:07.183Z,20.35
2019-02-09T09:01:34.360Z,20.39
2019-02-09T09:04:01.599Z,20.40
2019-02-09T09:06:28.773Z,20.39
2019-02-09T09:08:55.975Z,20.45
2019-02-09T09:11:23.206Z,20.43
2019-02-09T09:13:50.441Z,20.43
2019-02-09T09:16:17.658Z,20.42
2019-02-09T09:18:44.895Z,20.43
2019-02-09T09:21:12.119Z,20.44
2019-02-09T09:23:39.332Z,20.44
2019-02-09T09:26:06.518Z,20.45
2019-02-09T09:28:33.721Z,20.46
2019-02-09T09:31:00.940Z,20.44
2019-02-09T09:33:28.329Z,20.46
2019-02-09T09:35:55.678Z,20.47
2019-02-09T09:38:22.876Z,20.47
2019-02-09T09:40:50.122Z,20.51
2019-02-09T09:43:17.314Z,20.50
2019-02-09T09:45:44.485Z,20.50
2019-02-09T09:48:13.339Z,20.49
2019-02-09T09:50:40.542Z,20.45
2019-02-09T09:53:07.725Z,20.43
2019-02-09T09:55:34.957Z,20.39
2019-02-09T09:58:02.160Z,20.38
2019-02-09T10:00:29.337Z,20.35
2019-02-09T10:02:56.586Z,20.35
2019-02-09T10:05:23.797Z,20.37
2019-02-09T10:07:50.982Z,20.37
2019-02-09T10:10:18.330Z,20.35
2019-02-09T10:12:45.637Z,20.36
2019-02-09T10:15:14.897Z,20.36
2019-02-09T10:17:42.067Z,20.36
2019-02-09T10:20:11.910Z,20.37
2019-02-09T10:22:39.173Z,20.40
2019-02-09T10:25:06.583Z,20.41
2019-02-09T10:27:33.742Z,20.41
2019-02-09T10:30:00.972Z,20.41
2019-02-09T10:32:28.182Z,20.42
2019-02-09T10:34:55.406Z,20.43
2019-02-09T10:37:22.656Z,20.44
2019-02-09T10:39:49.825Z,20.47
2019-02-09T10:42:17.021Z,20.50
2019-02-09T10:44:44.235Z,20.53
2019-02-09T10:47:11.439Z,20.51
2019-02-09T10:49:38.661Z,20.46
2019-02-09T10:52:05.863Z,20.40
2019-02-09T10:54:33.053Z,20.39
2019-02-09T10:57:00.237Z,20.40
2019-02-09T10:59:27.453Z,20.43
2019-02-09T11:01:54.638Z,20.42
2019-02-09T11:04:21.850Z,20.42
2019-02-09T11:06:49.054Z,20.42
2019-02-09T11:09:20.492Z,20.44
2019-02-09T11:11:47.669Z,20.46
2019-02-09T11:14:14.866Z,20.50
2019-02-09T11:16:42.066Z,20.53
2019-02-09T11:19:09.299Z,20.49
2019-02-09T11:21:36.510Z,20.49
2019-02-09T11:24:03.748Z,20.49
2019-02-09T11:26:30.977Z,20.49
2019-02-09T11:28:58.164Z,20.50
2019-02-09T11:31:25.423Z,20.54
2019-02-09T11:33:52.642Z,20.57
2019-02-09T11:36:19.813Z,20.56
2019-02-09T11:38:47.080Z,20.56
2019-02-09T11:41:14.295Z,20.51
2019-02-09T11:43:41.559Z,20.51
2019-02-09T11:46:08.740Z,20.48
2019-02-09T11:48:35.906Z,20.45
2019-02-09T11:51:03.174Z,20.41
2019-02-09T11:53:30.398Z,20.41
2019-02-09T11:55:57.653Z,20.42
2019-02-09T11:58:24.896Z,20.41
2019-02-09T12:00:52.363Z,20.40
2019-02-09T12:03:19.623Z,20.41
2019-02-09T12:05:46.804Z,20.48
2019-02-09T12:08:13.985Z,20.55
2019-02-09T12:10:41.191Z,20.59
2019-02-09T12:13:08.379Z,20.60
2019-02-09T12:15:35.630Z,20.57
2019-02-09T12:18:02.866Z,20.57
2019-02-09T12:20:30.061Z,20.54
2019-02-09T12:22:57.394Z,20.49
2019-02-09T12:25:26.978Z,20.46
2019-02-09T12:27:54.162Z,20.43
2019-02-09T12:30:23.111Z,20.39
2019-02-09T12:32:50.263Z,20.37
2019-02-09T12:35:17.827Z,20.35
2019-02-09T12:37:45.113Z,20.33
2019-02-09T12:40:18.829Z,20.28
2019-02-09T12:42:46.045Z,20.26
2019-02-09T12:45:14.097Z,20.25
2019-02-09T12:47:41.326Z,20.21
2019-02-09T12:50:09.789Z,20.18
2019-02-09T12:52:37.017Z,20.18
2019-02-09T12:55:04.747Z,20.19
2019-02-09T12:57:31.893Z,20.18
2019-02-09T12:59:59.118Z,20.17
2019-02-09T13:02:26.320Z,20.18
2019-02-09T13:04:53.522Z,20.18
2019-02-09T13:07:20.715Z,20.15
2019-02-09T13:09:47.935Z,20.11
2019-02-09T13:12:15.123Z,20.14
2019-02-09T13:14:42.358Z,20.12
2019-02-09T13:17:09.559Z,20.11
2019-02-09T13:19:36.774Z,20.16
2019-02-09T13:22:04.003Z,20.16
2019-02-09T13:24:31.223Z,20.18
2019-02-09T13:26:58.417Z,20.18
2019-02-09T13:29:25.584Z,20.18
2019-02-09T13:31:52.808Z,20.19
2019-02-09T13:34:20.000Z,20.19
2019-02-09T13:36:47.291Z,20.19
2019-02-09T13:39:14.455Z,20.17
2019-02-09T13:41:41.707Z,20.16
2019-02-09T13:44:08.922Z,20.11
2019-02-09T13:46:36.127Z,20.08
2019-02-09T13:49:03.350Z,20.08
2019-02-09T13:51:30.586Z,20.06
2019-02-09T13:53:57.777Z,20.03
2019-02-09T13:56:25.000Z,20.03
2019-02-09T13:58:52.224Z,20.03
2019-02-09T14:01:20.331Z,20.03
2019-02-09T14:03:47.561Z,20.06
2019-02-09T14:06:14.783Z,20.09
2019-02-09T14:08:41.971Z,20.12
2019-02-09T14:11:09.180Z,20.13
2019-02-09T14:13:36.404Z,20.10
2019-02-09T14:16:08.096Z,20.10
2019-02-09T14:18:32.797Z,20.11
2019-02-09T14:21:00.051Z,20.10
2019-02-09T14:23:27.256Z,20.10
2019-02-09T14:25:54.483Z,20.09
2019-02-09T14:28:23.856Z,20.08
2019-02-09T14:30:51.004Z,20.04
2019-02-09T14:33:18.204Z,20.05
2019-02-09T14:35:45.482Z,20.04
2019-02-09T14:38:12.682Z,20.04
2019-02-09T14:40:39.887Z,20.01
2019-02-09T14:43:07.755Z,19.98
2019-02-09T14:45:37.034Z,19.93
2019-02-09T14:48:04.243Z,19.94
2019-02-09T14:50:31.458Z,19.96
2019-02-09T14:52:58.691Z,19.95
2019-02-09T14:55:27.992Z,19.96
2019-02-09T14:57:55.211Z,19.95
2019-02-09T15:00:24.821Z,19.96
2019-02-09T15:02:53.959Z,19.95
2019-02-09T15:05:21.182Z,19.95
2019-02-09T15:07:48.352Z,19.95
2019-02-09T15:10:16.836Z,19.96
2019-02-09T15:12:44.022Z,19.97
2019-02-09T15:15:17.995Z,19.95
2019-02-09T15:17:45.193Z,19.94
2019-02-09T15:20:15.230Z,19.92
2019-02-09T15:22:42.521Z,19.90
2019-02-09T15:25:09.747Z,19.86
2019-02-09T15:27:36.902Z,19.85
2019-02-09T15:30:05.799Z,19.86
2019-02-09T15:32:33.014Z,19.84
2019-02-09T15:35:00.316Z,19.88
2019-02-09T15:37:27.599Z,19.86
2019-02-09T15:39:54.812Z,19.85
2019-02-09T15:42:22.006Z,19.88
2019-02-09T15:44:49.211Z,19.86
2019-02-09T15:47:16.397Z,19.86
2019-02-09T15:49:43.705Z,19.84
2019-02-09T15:52:10.919Z,19.84
2019-02-09T15:54:38.114Z,19.83
2019-02-09T15:57:05.378Z,19.82
2019-02-09T15:59:32.547Z,19.84
2019-02-09T16:01:59.787Z,19.85
2019-02-09T16:04:27.000Z,19.84
2019-02-09T16:06:54.286Z,19.84
2019-02-09T16:09:21.481Z,19.82
2019-02-09T16:11:48.686Z,19.81
2019-02-09T16:14:15.947Z,19.81
2019-02-09T16:16:43.145Z,19.78
2019-02-09T16:19:10.398Z,19.75
2019-02-09T16:21:37.597Z,19.76
2019-02-09T16:24:04.834Z,19.71
2019-02-09T16:26:32.030Z,19.71
2019-02-09T16:28:59.371Z,19.71
2019-02-09T16:31:26.630Z,19.70
2019-02-09T16:33:53.823Z,19.68
2019-02-09T16:36:21.076Z,19.67
2019-02-09T16:38:48.320Z,19.65
2019-02-09T16:41:15.481Z,19.66
2019-02-09T16:43:42.683Z,19.60
2019-02-09T16:46:09.886Z,19.59
2019-02-09T16:48:37.042Z,19.61
2019-02-09T16:51:04.245Z,19.60
2019-02-09T16:53:31.553Z,19.57
2019-02-09T16:55:58.708Z,19.54
2019-02-09T16:58:25.889Z,19.49
2019-02-09T17:00:53.083Z,19.51
2019-02-09T17:03:20.281Z,19.50
2019-02-09T17:05:47.485Z,19.47
2019-02-09T17:08:14.669Z,19.45
2019-02-09T17:10:41.891Z,19.44
2019-02-09T17:13:09.084Z,19.43
2019-02-09T17:15:36.297Z,19.44
2019-02-09T17:18:03.660Z,19.42
2019-02-09T17:20:30.830Z,19.44
2019-02-09T17:22:58.043Z,19.41
2019-02-09T17:25:25.269Z,19.42
2019-02-09T17:27:52.471Z,19.43
2019-02-09T17:30:21.699Z,19.44
2019-02-09T17:32:48.894Z,19.45
2019-02-09T17:35:16.066Z,19.42
2019-02-09T17:37:43.349Z,19.42
2019-02-09T17:40:12.287Z,19.43
2019-02-09T17:42:39.581Z,19.44
2019-02-09T17:45:11.146Z,19.43
2019-02-09T17:47:38.460Z,19.46
2019-02-09T17:50:06.279Z,19.48
2019-02-09T17:52:33.535Z,19.47
2019-02-09T17:55:00.704Z,19.48
2019-02-09T17:57:27.875Z,19.48
2019-02-09T17:59:55.107Z,19.50
2019-02-09T18:02:22.345Z,19.51
2019-02-09T18:04:49.546Z,19.50
2019-02-09T18:07:16.740Z,19.48
2019-02-09T18:09:43.943Z,19.49
2019-02-09T18:12:11.148Z,19.51
2019-02-09T18:14:38.356Z,19.52
2019-02-09T18:17:05.620Z,19.55
2019-02-09T18:19:32.823Z,19.55
2019-02-09T18:22:00.006Z,19.54
2019-02-09T18:24:27.417Z,19.51
2019-02-09T18:26:54.695Z,19.51
2019-02-09T18:29:21.950Z,19.52
2019-02-09T18:31:49.304Z,19.52
2019-02-09T18:34:16.640Z,19.53
2019-02-09T18:36:44.068Z,19.56
2019-02-09T18:39:11.732Z,19.55
2019-02-09T18:41:39.136Z,19.56
2019-02-09T18:44:06.415Z,19.58
2019-02-09T18:46:33.795Z,19.56
2019-02-09T18:49:01.391Z,19.54
2019-02-09T18:51:28.761Z,19.55
2019-02-09T18:53:55.980Z,19.55
2019-02-09T18:56:23.191Z,19.54
2019-02-09T18:58:50.637Z,19.55
2019-02-09T19:01:17.986Z,19.57
2019-02-09T19:03:45.431Z,19.59
2019-02-09T19:06:13.969Z,19.57
2019-02-09T19:08:41.417Z,19.59
2019-02-09T19:11:08.863Z,19.59
2019-02-09T19:13:36.219Z,19.58
2019-02-09T19:16:03.967Z,19.58
2019-02-09T19:18:32.677Z,19.57
2019-02-09T19:21:01.054Z,19.57
2019-02-09T19:23:28.449Z,19.58
2019-02-09T19:25:57.583Z,19.60
2019-02-09T19:28:25.157Z,19.61
2019-02-09T19:30:52.577Z,19.54
2019-02-09T19:33:20.064Z,19.53
2019-02-09T19:35:47.519Z,19.55
2019-02-09T19:38:14.993Z,19.57
2019-02-09T19:40:45.837Z,19.58
2019-02-09T19:43:13.295Z,19.59
2019-02-09T19:45:40.879Z,19.53
2019-02-09T19:48:08.331Z,19.55
2019-02-09T19:50:35.999Z,19.50
2019-02-09T19:53:03.398Z,19.50
2019-02-09T19:55:30.878Z,19.53
2019-02-09T19:57:58.315Z,19.53
2019-02-09T20:00:33.698Z,19.53
2019-02-09T20:03:02.428Z,19.49
2019-02-09T20:05:29.878Z,19.52
2019-02-09T20:07:57.303Z,19.51
2019-02-09T20:10:27.129Z,19.52
2019-02-09T20:12:54.600Z,19.50
2019-02-09T20:15:22.009Z,19.46
2019-02-09T20:17:49.418Z,19.40
2019-02-09T20:20:16.752Z,19.40
2019-02-09T20:22:44.194Z,19.37
2019-02-09T20:25:14.075Z,19.37
2019-02-09T20:27:41.492Z,19.34
2019-02-09T20:30:18.022Z,19.33
2019-02-09T20:32:45.487Z,19.31
2019-02-09T20:35:13.533Z,19.28
2019-02-09T20:37:41.497Z,19.26
2019-02-09T20:40:14.947Z,19.24
2019-02-09T20:42:42.341Z,19.20
2019-02-09T20:45:11.183Z,19.16
2019-02-09T20:47:39.045Z,19.16
2019-02-09T20:50:07.422Z,19.13
2019-02-09T20:52:35.151Z,19.15
2019-02-09T20:55:02.687Z,19.12
2019-02-09T20:57:30.076Z,19.11
2019-02-09T20:59:57.485Z,19.11
2019-02-09T21:02:24.965Z,19.13
2019-02-09T21:04:52.345Z,19.09
2019-02-09T21:07:24.570Z,19.07
2019-02-09T21:09:49.105Z,19.07
2019-02-09T21:12:16.602Z,19.07
2019-02-09T21:14:44.051Z,19.07
2019-02-09T21:17:11.530Z,19.06
2019-02-09T21:19:40.054Z,19.03
2019-02-09T21:22:07.507Z,19.03
2019-02-09T21:24:34.931Z,19.02
2019-02-09T21:27:02.366Z,19.01
2019-02-09T21:29:29.794Z,19.03
2019-02-09T21:31:57.201Z,19.01
2019-02-09T21:34:24.714Z,19.05
2019-02-09T21:36:52.136Z,19.05
2019-02-09T21:39:19.424Z,19.02
2019-02-09T21:41:46.873Z,19.03
2019-02-09T21:44:14.194Z,18.99
2019-02-09T21:46:41.522Z,18.99
2019-02-09T21:49:08.812Z,18.97
2019-02-09T21:51:36.037Z,18.98
2019-02-09T21:54:03.296Z,18.97
2019-02-09T21:56:30.466Z,18.98
2019-02-09T21:58:57.670Z,18.99
2019-02-09T22:01:24.887Z,18.98
2019-02-09T22:03:52.109Z,18.96
2019-02-09T22:06:19.296Z,18.93
2019-02-09T22:08:46.527Z,18.92
2019-02-09T22:11:13.801Z,18.96
2019-02-09T22:13:40.909Z,18.96
2019-02-09T22:16:08.109Z,18.96
2019-02-09T22:18:35.413Z,18.95
2019-02-09T22:21:02.667Z,18.95
2019-02-09T22:23:29.845Z,18.94
2019-02-09T22:25:57.032Z,18.97
2019-02-09T22:28:24.229Z,18.98
2019-02-09T22:30:51.540Z,18.95
2019-02-09T22:33:24.780Z,18.95
2019-02-09T22:35:47.867Z,18.94
2019-02-09T22:38:15.138Z,18.96
2019-02-09T22:40:42.298Z,18.95
2019-02-09T22:43:10.593Z,18.91
2019-02-09T22:45:37.931Z,18.94
2019-02-09T22:48:06.219Z,18.96
2019-02-09T22:50:38.576Z,18.97
2019-02-09T22:53:05.837Z,18.91
2019-02-09T22:55:33.078Z,18.90
2019-02-09T22:58:00.266Z,18.90
2019-02-09T23:01:01.822Z,18.90
2019-02-09T23:03:33.022Z,18.91
2019-02-09T23:06:31.195Z,18.88
2019-02-09T23:08:58.502Z,18.89
2019-02-09T23:11:25.717Z,18.90
2019-02-09T23:13:52.912Z,18.90
2019-02-09T23:16:20.117Z,18.92
2019-02-09T23:18:47.327Z,18.94
2019-02-09T23:21:14.515Z,18.92
2019-02-09T23:23:41.685Z,18.91
2019-02-09T23:26:08.883Z,18.90
2019-02-09T23:28:36.076Z,18.90
2019-02-09T23:31:03.303Z,18.89
2019-02-09T23:33:30.497Z,18.91
2019-02-09T23:35:57.692Z,18.89
2019-02-09T23:38:24.950Z,18.88
2019-02-09T23:40:52.105Z,18.85
2019-02-09T23:43:19.321Z,18.87
2019-02-09T23:45:46.483Z,18.90
2019-02-09T23:48:13.745Z,18.90
2019-02-09T23:50:40.892Z,18.89
2019-02-09T23:53:08.098Z,18.89
2019-02-09T23:55:35.306Z,18.89
2019-02-09T23:58:02.555Z,18.93
